PWSweather.com
Personal Weather Stations
Station Observations
DAVIS2016
WorthingGB

WorthingGB

Lat: 50.8130266, Lon: -0.3832443000000012

Elevation: 34.8

Station Type: davis vantage vue 6250

Latest ConditionsUpdated 10:15:00 PM GMT Wednesday, Dec 12, 2018
Currently Today's Max Today's Min Today's Average
Temperature 43.2°F6.2°C 48.8°F9.3°C 43.1°F6.2°C 45.8°F7.7°C
Dew Point 34.1°F1.2°C 42.9°F6.1°C 31.3°F-0.4°C 37.7°F3.2°C
Winds 10.0 mph ESE16.1 kmh ESE 11.0 mph -17.7 kmh - - 7.6 mph 12.2 kmh
Wind Gusts 20.0 mph32.2 kmh 22.0 mph35.4 kmh - -
Humidity 70% 82% 62% 73%
Pressure 30.05 in1017.6 mb 30.18 in1022.0 mb 30.05 in1017.6 mb -
Hour Temp Dew Point Humidity Winds Wind Gusts Pressure Precip Precip Rate Daily Precip Total
10:15 PM 43.2°F6.2°C 34.1°F1.2°C 70% 10.0 mph ESE16.1 kmh ESE 20.0 mph32.2 kmh 30.05 in1017.6 mb 0.00 in0.0 mm 0.00 in0.0 mm 0.00 in0.0 mm
10:00 PM 43.1°F6.2°C 32.5°F0.3°C 66% 10.0 mph ESE16.1 kmh ESE 20.0 mph32.2 kmh 30.05 in1017.6 mb 0.00 in0.0 mm 0.00 in0.0 mm 0.00 in0.0 mm
09:45 PM 43.3°F6.3°C 32.7°F0.4°C 66% 9.0 mph ESE14.5 kmh ESE 21.0 mph33.8 kmh 30.05 in1017.6 mb 0.00 in0.0 mm 0.00 in0.0 mm 0.00 in0.0 mm
09:30 PM 43.3°F6.3°C 33.8°F1.0°C 69% 8.0 mph ESE12.9 kmh ESE 18.0 mph29.0 kmh 30.05 in1017.6 mb 0.00 in0.0 mm 0.00 in0.0 mm 0.00 in0.0 mm
09:15 PM 43.3°F6.3°C 33.8°F1.0°C 69% 10.0 mph ESE16.1 kmh ESE 19.0 mph30.6 kmh 30.05 in1017.6 mb 0.00 in0.0 mm 0.00 in0.0 mm 0.00 in0.0 mm
09:00 PM 43.3°F6.3°C 32.3°F0.2°C 65% 9.0 mph ESE14.5 kmh ESE 18.0 mph29.0 kmh 30.06 in1017.9 mb 0.00 in0.0 mm 0.00 in0.0 mm 0.00 in0.0 mm
08:45 PM 43.5°F6.4°C 31.3°F-0.4°C 62% 10.0 mph ESE16.1 kmh ESE 21.0 mph33.8 kmh 30.06 in1017.9 mb 0.00 in0.0 mm 0.00 in0.0 mm 0.00 in0.0 mm
08:30 PM 43.6°F6.4°C 32.6°F0.3°C 65% 10.0 mph ESE16.1 kmh ESE 20.0 mph32.2 kmh 30.06 in1017.9 mb 0.00 in0.0 mm 0.00 in0.0 mm 0.00 in0.0 mm
08:15 PM 43.7°F6.5°C 33.5°F0.8°C 67% 9.0 mph ESE14.5 kmh ESE 18.0 mph29.0 kmh 30.06 in1017.9 mb 0.00 in0.0 mm 0.00 in0.0 mm 0.00 in0.0 mm
08:00 PM 43.8°F6.6°C 33.2°F0.7°C 66% 11.0 mph SE17.7 kmh SE 22.0 mph35.4 kmh 30.07 in1018.3 mb 0.00 in0.0 mm 0.00 in0.0 mm 0.00 in0.0 mm
07:45 PM 43.9°F6.6°C 33.3°F0.7°C 66% 10.0 mph SE16.1 kmh SE 18.0 mph29.0 kmh 30.08 in1018.6 mb 0.00 in0.0 mm 0.00 in0.0 mm 0.00 in0.0 mm
07:30 PM 44.0°F6.7°C 33.0°F0.6°C 65% 10.0 mph ESE16.1 kmh ESE 22.0 mph35.4 kmh 30.09 in1019.0 mb 0.00 in0.0 mm 0.00 in0.0 mm 0.00 in0.0 mm
07:15 PM 43.7°F6.5°C 32.7°F0.4°C 65% 9.0 mph ESE14.5 kmh ESE 18.0 mph29.0 kmh 30.09 in1019.0 mb 0.00 in0.0 mm 0.00 in0.0 mm 0.00 in0.0 mm
07:00 PM 43.8°F6.6°C 33.2°F0.7°C 66% 8.0 mph ESE12.9 kmh ESE 21.0 mph33.8 kmh 30.10 in1019.3 mb 0.00 in0.0 mm 0.00 in0.0 mm 0.00 in0.0 mm
06:30 PM 44.0°F6.7°C 33.7°F0.9°C 67% 8.0 mph ESE12.9 kmh ESE 16.0 mph25.7 kmh 30.10 in1019.3 mb 0.00 in0.0 mm 0.00 in0.0 mm 0.00 in0.0 mm
06:15 PM 44.0°F6.7°C 34.1°F1.2°C 68% 9.0 mph SE14.5 kmh SE 22.0 mph35.4 kmh 30.10 in1019.3 mb 0.00 in0.0 mm 0.00 in0.0 mm 0.00 in0.0 mm
06:00 PM 44.1°F6.7°C 33.8°F1.0°C 67% 9.0 mph ESE14.5 kmh ESE 19.0 mph30.6 kmh 30.11 in1019.6 mb 0.00 in0.0 mm 0.00 in0.0 mm 0.00 in0.0 mm
05:45 PM 44.0°F6.7°C 33.4°F0.8°C 66% 9.0 mph SE14.5 kmh SE 18.0 mph29.0 kmh 30.11 in1019.6 mb 0.00 in0.0 mm 0.00 in0.0 mm 0.00 in0.0 mm
05:30 PM 43.8°F6.6°C 32.8°F0.4°C 65% 8.0 mph ESE12.9 kmh ESE 17.0 mph27.4 kmh 30.11 in1019.6 mb 0.00 in0.0 mm 0.00 in0.0 mm 0.00 in0.0 mm
05:15 PM 43.8°F6.6°C 33.9°F1.1°C 68% 9.0 mph SE14.5 kmh SE 18.0 mph29.0 kmh 30.11 in1019.6 mb 0.00 in0.0 mm 0.00 in0.0 mm 0.00 in0.0 mm
05:00 PM 43.7°F6.5°C 33.8°F1.0°C 68% 9.0 mph SE14.5 kmh SE 19.0 mph30.6 kmh 30.11 in1019.6 mb 0.00 in0.0 mm 0.00 in0.0 mm 0.00 in0.0 mm
04:45 PM 43.7°F6.5°C 34.2°F1.2°C 69% 9.0 mph SE14.5 kmh SE 19.0 mph30.6 kmh 30.11 in1019.6 mb 0.00 in0.0 mm 0.00 in0.0 mm 0.00 in0.0 mm
04:30 PM 43.6°F6.4°C 34.1°F1.2°C 69% 9.0 mph ESE14.5 kmh ESE 19.0 mph30.6 kmh 30.12 in1020.0 mb 0.00 in0.0 mm 0.00 in0.0 mm 0.00 in0.0 mm
04:15 PM 43.5°F6.4°C 33.6°F0.9°C 68% 10.0 mph ESE16.1 kmh ESE 18.0 mph29.0 kmh 30.12 in1020.0 mb 0.00 in0.0 mm 0.00 in0.0 mm 0.00 in0.0 mm
04:00 PM 43.6°F6.4°C 34.1°F1.2°C 69% 10.0 mph ESE16.1 kmh ESE 18.0 mph29.0 kmh 30.12 in1020.0 mb 0.00 in0.0 mm 0.00 in0.0 mm 0.00 in0.0 mm
03:45 PM 43.6°F6.4°C 33.7°F0.9°C 68% 10.0 mph SE16.1 kmh SE 21.0 mph33.8 kmh 30.12 in1020.0 mb 0.00 in0.0 mm 0.00 in0.0 mm 0.00 in0.0 mm
03:30 PM 43.5°F6.4°C 32.1°F0.1°C 64% 11.0 mph ESE17.7 kmh ESE 20.0 mph32.2 kmh 30.13 in1020.3 mb 0.00 in0.0 mm 0.00 in0.0 mm 0.00 in0.0 mm
03:15 PM 43.6°F6.4°C 34.5°F1.4°C 70% 9.0 mph SE14.5 kmh SE 18.0 mph29.0 kmh 30.13 in1020.3 mb 0.00 in0.0 mm 0.00 in0.0 mm 0.00 in0.0 mm
03:00 PM 43.7°F6.5°C 33.8°F1.0°C 68% 9.0 mph ESE14.5 kmh ESE 22.0 mph35.4 kmh 30.13 in1020.3 mb 0.00 in0.0 mm 0.00 in0.0 mm 0.00 in0.0 mm
02:45 PM 43.9°F6.6°C 34.4°F1.3°C 69% 8.0 mph ESE12.9 kmh ESE 16.0 mph25.7 kmh 30.13 in1020.3 mb 0.00 in0.0 mm 0.00 in0.0 mm 0.00 in0.0 mm
02:30 PM 44.0°F6.7°C 34.1°F1.2°C 68% 7.0 mph ESE11.3 kmh ESE 17.0 mph27.4 kmh 30.14 in1020.7 mb 0.00 in0.0 mm 0.00 in0.0 mm 0.00 in0.0 mm
02:15 PM 44.1°F6.7°C 34.6°F1.4°C 69% 7.0 mph ESE11.3 kmh ESE 16.0 mph25.7 kmh 30.14 in1020.7 mb 0.00 in0.0 mm 0.00 in0.0 mm 0.00 in0.0 mm
02:00 PM 44.2°F6.8°C 34.7°F1.5°C 69% 8.0 mph ESE12.9 kmh ESE 16.0 mph25.7 kmh 30.15 in1021.0 mb 0.00 in0.0 mm 0.00 in0.0 mm 0.00 in0.0 mm
01:45 PM 44.5°F6.9°C 35.3°F1.8°C 70% 8.0 mph ESE12.9 kmh ESE 16.0 mph25.7 kmh 30.15 in1021.0 mb 0.00 in0.0 mm 0.00 in0.0 mm 0.00 in0.0 mm
01:30 PM 44.7°F7.1°C 35.5°F1.9°C 70% 8.0 mph ESE12.9 kmh ESE 17.0 mph27.4 kmh 30.15 in1021.0 mb 0.00 in0.0 mm 0.00 in0.0 mm 0.00 in0.0 mm
01:15 PM 44.5°F6.9°C 35.3°F1.8°C 70% 8.0 mph ESE12.9 kmh ESE 16.0 mph25.7 kmh 30.16 in1021.3 mb 0.00 in0.0 mm 0.00 in0.0 mm 0.00 in0.0 mm
01:00 PM 44.7°F7.1°C 36.2°F2.3°C 72% 7.0 mph ESE11.3 kmh ESE 15.0 mph24.1 kmh 30.16 in1021.3 mb 0.00 in0.0 mm 0.00 in0.0 mm 0.00 in0.0 mm
12:45 PM 44.7°F7.1°C 35.5°F1.9°C 70% 7.0 mph ESE11.3 kmh ESE 15.0 mph24.1 kmh 30.16 in1021.3 mb 0.00 in0.0 mm 0.00 in0.0 mm 0.00 in0.0 mm
12:30 PM 45.0°F7.2°C 35.8°F2.1°C 70% 6.0 mph E9.7 kmh E 15.0 mph24.1 kmh 30.18 in1022.0 mb 0.00 in0.0 mm 0.00 in0.0 mm 0.00 in0.0 mm
12:15 PM 45.2°F7.3°C 36.4°F2.4°C 71% 6.0 mph ESE9.7 kmh ESE 13.0 mph20.9 kmh 30.18 in1022.0 mb 0.00 in0.0 mm 0.00 in0.0 mm 0.00 in0.0 mm
12:00 PM 45.5°F7.5°C 37.0°F2.8°C 72% 6.0 mph ESE9.7 kmh ESE 14.0 mph22.5 kmh 30.17 in1021.7 mb 0.00 in0.0 mm 0.00 in0.0 mm 0.00 in0.0 mm
11:45 AM 45.8°F7.7°C 36.9°F2.7°C 71% 6.0 mph ESE9.7 kmh ESE 12.0 mph19.3 kmh 30.18 in1022.0 mb 0.00 in0.0 mm 0.00 in0.0 mm 0.00 in0.0 mm
11:30 AM 45.9°F7.7°C 37.0°F2.8°C 71% 7.0 mph ESE11.3 kmh ESE 14.0 mph22.5 kmh 30.17 in1021.7 mb 0.00 in0.0 mm 0.00 in0.0 mm 0.00 in0.0 mm
11:15 AM 46.0°F7.8°C 36.4°F2.4°C 69% 7.0 mph SE11.3 kmh SE 14.0 mph22.5 kmh 30.16 in1021.3 mb 0.00 in0.0 mm 0.00 in0.0 mm 0.00 in0.0 mm
11:00 AM 45.9°F7.7°C 37.0°F2.8°C 71% 7.0 mph SE11.3 kmh SE 15.0 mph24.1 kmh 30.17 in1021.7 mb 0.00 in0.0 mm 0.00 in0.0 mm 0.00 in0.0 mm
10:45 AM 45.9°F7.7°C 37.7°F3.2°C 73% 9.0 mph SE14.5 kmh SE 15.0 mph24.1 kmh 30.18 in1022.0 mb 0.00 in0.0 mm 0.00 in0.0 mm 0.00 in0.0 mm
10:30 AM 46.0°F7.8°C 37.5°F3.1°C 72% 9.0 mph SE14.5 kmh SE 17.0 mph27.4 kmh 30.18 in1022.0 mb 0.00 in0.0 mm 0.00 in0.0 mm 0.00 in0.0 mm
10:15 AM 46.1°F7.8°C 37.6°F3.1°C 72% 8.0 mph SE12.9 kmh SE 16.0 mph25.7 kmh 30.18 in1022.0 mb 0.00 in0.0 mm 0.00 in0.0 mm 0.00 in0.0 mm
10:00 AM 46.2°F7.9°C 38.0°F3.3°C 73% 8.0 mph SE12.9 kmh SE 14.0 mph22.5 kmh 30.18 in1022.0 mb 0.00 in0.0 mm 0.00 in0.0 mm 0.00 in0.0 mm
09:45 AM 46.2°F7.9°C 38.4°F3.6°C 74% 7.0 mph SE11.3 kmh SE 13.0 mph20.9 kmh 30.18 in1022.0 mb 0.00 in0.0 mm 0.00 in0.0 mm 0.00 in0.0 mm
09:30 AM 46.0°F7.8°C 39.9°F4.4°C 79% 9.0 mph SE14.5 kmh SE 15.0 mph24.1 kmh 30.18 in1022.0 mb 0.00 in0.0 mm 0.00 in0.0 mm 0.00 in0.0 mm
09:15 AM 46.0°F7.8°C 40.2°F4.6°C 80% 8.0 mph SE12.9 kmh SE 14.0 mph22.5 kmh 30.18 in1022.0 mb 0.00 in0.0 mm 0.00 in0.0 mm 0.00 in0.0 mm
09:00 AM 46.1°F7.8°C 40.6°F4.8°C 81% 9.0 mph SE14.5 kmh SE 17.0 mph27.4 kmh 30.18 in1022.0 mb 0.00 in0.0 mm 0.00 in0.0 mm 0.00 in0.0 mm
08:45 AM 46.2°F7.9°C 40.4°F4.7°C 80% 8.0 mph SE12.9 kmh SE 14.0 mph22.5 kmh 30.18 in1022.0 mb 0.00 in0.0 mm 0.00 in0.0 mm 0.00 in0.0 mm
08:30 AM 46.1°F7.8°C 40.6°F4.8°C 81% 7.0 mph SE11.3 kmh SE 15.0 mph24.1 kmh 30.18 in1022.0 mb 0.00 in0.0 mm 0.00 in0.0 mm 0.00 in0.0 mm
08:15 AM 46.2°F7.9°C 40.7°F4.8°C 81% 6.0 mph SE9.7 kmh SE 12.0 mph19.3 kmh 30.18 in1022.0 mb 0.00 in0.0 mm 0.00 in0.0 mm 0.00 in0.0 mm
08:00 AM 46.1°F7.8°C 40.6°F4.8°C 81% 7.0 mph SE11.3 kmh SE 14.0 mph22.5 kmh 30.18 in1022.0 mb 0.00 in0.0 mm 0.00 in0.0 mm 0.00 in0.0 mm
07:45 AM 46.3°F7.9°C 41.1°F5.1°C 82% 7.0 mph SE11.3 kmh SE 13.0 mph20.9 kmh 30.18 in1022.0 mb 0.00 in0.0 mm 0.00 in0.0 mm 0.00 in0.0 mm
07:30 AM 46.5°F8.1°C 41.3°F5.2°C 82% 6.0 mph SE9.7 kmh SE 11.0 mph17.7 kmh 30.18 in1022.0 mb 0.00 in0.0 mm 0.00 in0.0 mm 0.00 in0.0 mm
07:15 AM 46.6°F8.1°C 41.1°F5.1°C 81% 7.0 mph SE11.3 kmh SE 14.0 mph22.5 kmh 30.17 in1021.7 mb 0.00 in0.0 mm 0.00 in0.0 mm 0.00 in0.0 mm
07:00 AM 46.7°F8.2°C 40.9°F4.9°C 80% 6.0 mph SE9.7 kmh SE 13.0 mph20.9 kmh 30.17 in1021.7 mb 0.00 in0.0 mm 0.00 in0.0 mm 0.00 in0.0 mm
06:45 AM 46.9°F8.3°C 41.1°F5.1°C 80% 7.0 mph SE11.3 kmh SE 14.0 mph22.5 kmh 30.16 in1021.3 mb 0.00 in0.0 mm 0.00 in0.0 mm 0.00 in0.0 mm
06:30 AM 47.1°F8.4°C 40.9°F4.9°C 79% 7.0 mph SE11.3 kmh SE 14.0 mph22.5 kmh 30.16 in1021.3 mb 0.00 in0.0 mm 0.00 in0.0 mm 0.00 in0.0 mm
06:15 AM 47.2°F8.4°C 41.0°F5.0°C 79% 7.0 mph SE11.3 kmh SE 12.0 mph19.3 kmh 30.15 in1021.0 mb 0.00 in0.0 mm 0.00 in0.0 mm 0.00 in0.0 mm
06:00 AM 47.4°F8.6°C 41.5°F5.3°C 80% 7.0 mph SE11.3 kmh SE 14.0 mph22.5 kmh 30.15 in1021.0 mb 0.00 in0.0 mm 0.00 in0.0 mm 0.00 in0.0 mm
05:45 AM 47.5°F8.6°C 41.6°F5.3°C 80% 7.0 mph SE11.3 kmh SE 13.0 mph20.9 kmh 30.15 in1021.0 mb 0.00 in0.0 mm 0.00 in0.0 mm 0.00 in0.0 mm
05:30 AM 47.6°F8.7°C 41.7°F5.4°C 80% 6.0 mph SE9.7 kmh SE 12.0 mph19.3 kmh 30.14 in1020.7 mb 0.00 in0.0 mm 0.00 in0.0 mm 0.00 in0.0 mm
05:15 AM 47.7°F8.7°C 41.8°F5.4°C 80% 6.0 mph SE9.7 kmh SE 10.0 mph16.1 kmh 30.15 in1021.0 mb 0.00 in0.0 mm 0.00 in0.0 mm 0.00 in0.0 mm
05:00 AM 47.9°F8.8°C 42.0°F5.6°C 80% 6.0 mph SE9.7 kmh SE 15.0 mph24.1 kmh 30.15 in1021.0 mb 0.00 in0.0 mm 0.00 in0.0 mm 0.00 in0.0 mm
04:45 AM 48.0°F8.9°C 42.1°F5.6°C 80% 7.0 mph SE11.3 kmh SE 14.0 mph22.5 kmh 30.15 in1021.0 mb 0.00 in0.0 mm 0.00 in0.0 mm 0.00 in0.0 mm
04:30 AM 48.3°F9.1°C 42.1°F5.6°C 79% 7.0 mph SE11.3 kmh SE 12.0 mph19.3 kmh 30.15 in1021.0 mb 0.00 in0.0 mm 0.00 in0.0 mm 0.00 in0.0 mm
04:15 AM 48.4°F9.1°C 41.5°F5.3°C 77% 5.0 mph SE8.0 kmh SE 11.0 mph17.7 kmh 30.15 in1021.0 mb 0.00 in0.0 mm 0.00 in0.0 mm 0.00 in0.0 mm
04:00 AM 48.4°F9.1°C 41.9°F5.5°C 78% 6.0 mph SE9.7 kmh SE 11.0 mph17.7 kmh 30.15 in1021.0 mb 0.00 in0.0 mm 0.00 in0.0 mm 0.00 in0.0 mm
03:45 AM 48.5°F9.2°C 42.6°F5.9°C 80% 5.0 mph SE8.0 kmh SE 10.0 mph16.1 kmh 30.16 in1021.3 mb 0.00 in0.0 mm 0.00 in0.0 mm 0.00 in0.0 mm
03:30 AM 48.5°F9.2°C 42.3°F5.7°C 79% 6.0 mph SE9.7 kmh SE 11.0 mph17.7 kmh 30.16 in1021.3 mb 0.00 in0.0 mm 0.00 in0.0 mm 0.00 in0.0 mm
03:15 AM 48.7°F9.3°C 42.8°F6.0°C 80% 6.0 mph SSE9.7 kmh SSE 13.0 mph20.9 kmh 30.16 in1021.3 mb 0.00 in0.0 mm 0.00 in0.0 mm 0.00 in0.0 mm
03:00 AM 48.7°F9.3°C 41.8°F5.4°C 77% 6.0 mph SSE9.7 kmh SSE 11.0 mph17.7 kmh 30.16 in1021.3 mb 0.00 in0.0 mm 0.00 in0.0 mm 0.00 in0.0 mm
02:45 AM 48.8°F9.3°C 42.2°F5.7°C 78% 6.0 mph SSE9.7 kmh SSE 12.0 mph19.3 kmh 30.16 in1021.3 mb 0.00 in0.0 mm 0.00 in0.0 mm 0.00 in0.0 mm
02:30 AM 48.7°F9.3°C 41.8°F5.4°C 77% 6.0 mph SSE9.7 kmh SSE 13.0 mph20.9 kmh 30.16 in1021.3 mb 0.00 in0.0 mm 0.00 in0.0 mm 0.00 in0.0 mm
02:15 AM 48.8°F9.3°C 42.6°F5.9°C 79% 5.0 mph SSE8.0 kmh SSE 11.0 mph17.7 kmh 30.16 in1021.3 mb 0.00 in0.0 mm 0.00 in0.0 mm 0.00 in0.0 mm
02:00 AM 48.8°F9.3°C 41.9°F5.5°C 77% 6.0 mph SSE9.7 kmh SSE 13.0 mph20.9 kmh 30.16 in1021.3 mb 0.00 in0.0 mm 0.00 in0.0 mm 0.00 in0.0 mm
01:45 AM 48.8°F9.3°C 42.2°F5.7°C 78% 6.0 mph SSE9.7 kmh SSE 12.0 mph19.3 kmh 30.16 in1021.3 mb 0.00 in0.0 mm 0.00 in0.0 mm 0.00 in0.0 mm
01:30 AM 48.8°F9.3°C 42.2°F5.7°C 78% 6.0 mph SSE9.7 kmh SSE 14.0 mph22.5 kmh 30.16 in1021.3 mb 0.00 in0.0 mm 0.00 in0.0 mm 0.00 in0.0 mm
01:15 AM 48.7°F9.3°C 42.1°F5.6°C 78% 6.0 mph SSE9.7 kmh SSE 14.0 mph22.5 kmh 30.16 in1021.3 mb 0.00 in0.0 mm 0.00 in0.0 mm 0.00 in0.0 mm
01:00 AM 48.7°F9.3°C 42.8°F6.0°C 80% 6.0 mph SSE9.7 kmh SSE 13.0 mph20.9 kmh 30.16 in1021.3 mb 0.00 in0.0 mm 0.00 in0.0 mm 0.00 in0.0 mm
12:45 AM 48.7°F9.3°C 42.8°F6.0°C 80% 6.0 mph SSE9.7 kmh SSE 13.0 mph20.9 kmh 30.16 in1021.3 mb 0.00 in0.0 mm 0.00 in0.0 mm 0.00 in0.0 mm
12:30 AM 48.7°F9.3°C 42.8°F6.0°C 80% 7.0 mph SSE11.3 kmh SSE 13.0 mph20.9 kmh 30.16 in1021.3 mb 0.00 in0.0 mm 0.00 in0.0 mm 0.00 in0.0 mm
12:15 AM 48.7°F9.3°C 42.8°F6.0°C 80% 7.0 mph SSE11.3 kmh SSE 13.0 mph20.9 kmh 30.17 in1021.7 mb 0.00 in0.0 mm 0.00 in0.0 mm 0.00 in0.0 mm
12:00 AM 48.8°F9.3°C 42.9°F6.1°C 80% 7.0 mph SSE11.3 kmh SSE 13.0 mph20.9 kmh 30.17 in1021.7 mb 0.00 in0.0 mm 0.00 in0.0 mm 0.00 in0.0 mm